Nearby METAR Reports

 

LFSI - St. Dizier/Robin, France
Distance from station: SO 26km
Mise à jour: 20/09/2021 08:00
Light drizzle, nuageux
Light drizzle, nuageux
 Wind from varies
Vent: varies 4 km/h
Température: 13°C
Point de rosée: 13°C
Humidité: 100%
Baromètre: 1017 hPa
Résumé: Light Drizzle
Clouds: nuageux
Visibility: 10 km
Cloud details: Few Clouds 549 m
nuageux 732 m
nuageux 945 m
2021/09/20 06:00 LFSI 200600Z AUTO VRB02KT 9999 -DZ FEW018 BKN024 BKN031 13/13 Q1017
LFSO - Nancy/Ochey (faf, France
Distance from station: ESE 62km
Mise à jour: 20/09/2021 08:00
couvert
couvert
 Wind from varies
Vent: varies 4 km/h
Température: 13°C
Point de rosée: 13°C
Humidité: 100%
Baromètre: 1018 hPa
Clouds: couvert
Visibility: 10 km
Cloud details: nuageux 122 m
couvert 518 m
2021/09/20 06:00 LFSO 200600Z AUTO VRB02KT 9999 BKN004 OVC017 13/13 Q1018 TEMPO BKN005 BKN015
LFOK - Chalons/Vatry Fa, France
Distance from station: O 73km
Mise à jour: 20/09/2021 08:00
Mist, couvert
Mist, couvert
 Wind from N
Vent: N 9 km/h
Température: 15°C
Point de rosée: 14°C
Humidité: 94%
Baromètre: 1017 hPa
Résumé: Mist
Clouds: couvert
Visibility: 5 km
Cloud details: couvert 183 m
2021/09/20 06:00 LFOK 200600Z AUTO 01005KT 5000 BR OVC006 15/14 Q1017 NOSIG
 
LFSN - Nancy/Essey, France
Distance from station: E 77km
Mise à jour: 20/09/2021 08:00
Thunderstorm
Thunderstorm
 Wind from SSE
Vent: SSE 7 km/h
Température: 14°C
Point de rosée: 13°C
Humidité: 94%
Baromètre: 1018 hPa
Clouds: Thunderstorm
Visibility: 10 km
Cloud details: nuageux 213 m
couvert 488 m
2021/09/20 06:00 LFSN 200600Z AUTO 16004KT 9999 BKN007/// OVC016/// ///CB 14/13 Q1018
LFSG - Epinal/Mirecourt, France
Distance from station: SE 81km
Mise à jour: 20/09/2021 08:00
couvert
couvert
 Wind from S
Vent: S 6 km/h
Température: 13°C
Point de rosée: 12°C
Humidité: 94%
Baromètre: 1018 hPa
Clouds: couvert
Visibility: 10 km
Cloud details: nuageux 122 m
couvert 823 m
2021/09/20 06:00 LFSG 200600Z AUTO 17003KT 9999 BKN004 OVC027 13/12 Q1018
LFJL - Metz-Nancy-Lorra, France
Distance from station: ENE 82km
Mise à jour: 20/09/2021 08:00
pluie légère, Thunderstorm
pluie légère, Thunderstorm
 Wind from S
Vent: S 7 km/h
Température: 13°C
Point de rosée: 13°C
Humidité: 100%
Baromètre: 1017 hPa
Résumé: pluie légère
Clouds: Thunderstorm
Visibility: 6 km
Cloud details: Few Clouds 335 m
couvert 2134 m
2021/09/20 06:00 LFJL 200600Z AUTO 18004KT 6000 -RA FEW011/// OVC070/// ///CB 13/13 Q1017 TEMPO 3000 -SHRA BKN008 FEW015TCU
 
LFQA - Reims/Prunay, France
Distance from station: ONO 89km
Mise à jour: 20/09/2021 08:00
Mist, couvert
Mist, couvert
 Wind from N
Vent: N 4 km/h
Température: 15°C
Point de rosée: 14°C
Humidité: 94%
Baromètre: 1017 hPa
Résumé: Mist
Clouds: couvert
Visibility: 4 km
Cloud details: couvert 305 m
2021/09/20 06:00 LFQA 200600Z AUTO 35002KT 3600 BR OVC010 15/14 Q1017
LFQB - Troyes/Barberey, France
Distance from station: OSO 99km
Mise à jour: 20/09/2021 08:00
couvert
couvert
 Wind from NNO
Vent: NNO 4 km/h
Température: 15°C
Point de rosée: 14°C
Humidité: 94%
Baromètre: 1017 hPa
Clouds: couvert
Visibility: 10 km
Cloud details: couvert 244 m
2021/09/20 06:00 LFQB 200600Z AUTO 33002KT 9999 OVC008 15/14 Q1017